createdAt,value
2023-01-10T00:02:51.904Z,1000.1
2023-01-10T00:05:51.988Z,1000.1
2023-01-10T00:08:51.861Z,1000.2
2023-01-10T00:11:51.858Z,1000.2
2023-01-10T00:14:51.900Z,1000.2
2023-01-10T00:17:51.866Z,1000.3
2023-01-10T00:20:51.881Z,1000.4
2023-01-10T00:23:51.869Z,1000.4
2023-01-10T00:26:51.898Z,1000.5
2023-01-10T00:29:51.867Z,1000.6
2023-01-10T00:32:51.898Z,1000.7
2023-01-10T00:35:51.880Z,1000.6
2023-01-10T00:38:51.871Z,1000.6
2023-01-10T00:41:51.877Z,1000.7
2023-01-10T00:44:51.873Z,1000.7
2023-01-10T00:47:51.892Z,1000.8
2023-01-10T00:50:51.910Z,1000.9
2023-01-10T00:53:51.882Z,1000.9
2023-01-10T00:56:51.876Z,1001
2023-01-10T00:59:51.878Z,1001.1
2023-01-10T01:02:52.049Z,1001.1
2023-01-10T01:05:51.876Z,1001.1
2023-01-10T01:08:51.921Z,1001.1
2023-01-10T01:11:51.882Z,1001.2
2023-01-10T01:14:51.883Z,1001.1
2023-01-10T01:17:51.881Z,1001.3
2023-01-10T01:20:51.884Z,1001.4
2023-01-10T01:23:51.882Z,1001.4
2023-01-10T01:26:51.913Z,1001.5
2023-01-10T01:29:51.893Z,1001.5
2023-01-10T01:32:51.889Z,1001.7
2023-01-10T01:35:51.885Z,1001.7
2023-01-10T01:38:51.894Z,1001.9
2023-01-10T01:41:51.896Z,1001.9
2023-01-10T01:44:51.926Z,1002
2023-01-10T01:47:51.899Z,1002.1
2023-01-10T01:50:51.911Z,1002.1
2023-01-10T01:53:51.898Z,1002.1
2023-01-10T01:56:51.930Z,1002.2
2023-01-10T01:59:51.901Z,1002.3
2023-01-10T02:03:02.048Z,1002.1
2023-01-10T02:05:51.911Z,1002.2
2023-01-10T02:08:51.910Z,1002.2
2023-01-10T02:11:51.908Z,1002.3
2023-01-10T02:14:51.949Z,1002.3
2023-01-10T02:17:51.915Z,1002.4
2023-01-10T02:20:51.939Z,1002.4
2023-01-10T02:23:51.916Z,1002.5
2023-01-10T02:26:51.915Z,1002.5
2023-01-10T02:29:51.916Z,1002.6
2023-01-10T02:33:04.187Z,1002.5
2023-01-10T02:35:52.043Z,1002.6
2023-01-10T02:38:51.948Z,1002.6
2023-01-10T02:41:51.921Z,1002.6
2023-01-10T02:44:51.927Z,1002.8
2023-01-10T02:47:51.921Z,1002.8
2023-01-10T02:50:51.920Z,1002.8
2023-01-10T02:53:51.927Z,1002.8
2023-01-10T02:56:51.952Z,1002.8
2023-01-10T02:59:51.930Z,1003
2023-01-10T03:02:51.919Z,1003
2023-01-10T03:05:51.923Z,1003
2023-01-10T03:08:51.928Z,1003.1
2023-01-10T03:11:51.931Z,1003.1
2023-01-10T03:14:51.956Z,1003.2
2023-01-10T03:17:51.926Z,1003.2
2023-01-10T03:20:51.937Z,1003.3
2023-01-10T03:23:51.933Z,1003.3
2023-01-10T03:26:51.926Z,1003.4
2023-01-10T03:29:51.929Z,1003.4
2023-01-10T03:32:51.960Z,1003.5
2023-01-10T03:35:51.938Z,1003.6
2023-01-10T03:38:51.933Z,1003.7
2023-01-10T03:41:51.939Z,1003.7
2023-01-10T03:44:51.938Z,1003.7
2023-01-10T03:47:51.939Z,1003.9
2023-01-10T03:50:51.963Z,1004
2023-01-10T03:53:51.948Z,1004
2023-01-10T03:56:51.949Z,1004.1
2023-01-10T03:59:51.955Z,1004.2
2023-01-10T04:02:51.951Z,1004.3
2023-01-10T04:05:51.952Z,1004.3
2023-01-10T04:08:51.980Z,1004.2
2023-01-10T04:11:51.962Z,1004.2
2023-01-10T04:14:51.962Z,1004.4
2023-01-10T04:17:51.959Z,1004.4
2023-01-10T04:20:52.317Z,1004.4
2023-01-10T04:23:51.959Z,1004.5
2023-01-10T04:26:51.985Z,1004.6
2023-01-10T04:29:51.958Z,1004.7
2023-01-10T04:32:51.959Z,1004.7
2023-01-10T04:35:51.971Z,1004.8
2023-01-10T04:38:51.980Z,1004.9
2023-01-10T04:41:51.973Z,1004.7
2023-01-10T04:44:52.001Z,1004.9
2023-01-10T04:47:51.992Z,1005
2023-01-10T04:50:51.985Z,1005
2023-01-10T04:53:51.985Z,1005
2023-01-10T04:56:51.969Z,1005.1
2023-01-10T04:59:51.973Z,1005.1
2023-01-10T05:02:52.088Z,1005.2
2023-01-10T05:05:51.985Z,1005.3
2023-01-10T05:08:51.984Z,1005.3
2023-01-10T05:11:51.982Z,1005.3
2023-01-10T05:14:51.983Z,1005.3
2023-01-10T05:17:51.985Z,1005.4
2023-01-10T05:20:52.011Z,1005.4
2023-01-10T05:23:51.989Z,1005.4
2023-01-10T05:26:52.002Z,1005.5
2023-01-10T05:29:51.999Z,1005.6
2023-01-10T05:32:51.994Z,1005.6
2023-01-10T05:35:51.998Z,1005.8
2023-01-10T05:38:52.020Z,1005.9
2023-01-10T05:41:52.005Z,1005.8
2023-01-10T05:44:52.009Z,1005.9
2023-01-10T05:47:52.005Z,1005.9
2023-01-10T05:50:52.001Z,1005.9
2023-01-10T05:53:52.015Z,1006
2023-01-10T05:56:52.060Z,1006.1
2023-01-10T05:59:52.012Z,1006.1
2023-01-10T06:02:52.080Z,1006.2
2023-01-10T06:05:52.013Z,1006.2
2023-01-10T06:08:52.014Z,1006.1
2023-01-10T06:11:52.024Z,1006.1
2023-01-10T06:14:52.041Z,1006.2
2023-01-10T06:17:52.027Z,1006.3
2023-01-10T06:20:52.025Z,1006.4
2023-01-10T06:23:52.024Z,1006.5
2023-01-10T06:26:52.031Z,1006.5
2023-01-10T06:29:52.029Z,1006.5
2023-01-10T06:32:52.059Z,1006.7
2023-01-10T06:35:52.034Z,1006.8
2023-01-10T06:38:52.042Z,1006.9
2023-01-10T06:41:52.038Z,1006.9
2023-01-10T06:44:52.043Z,1006.9
2023-01-10T06:47:52.042Z,1007
2023-01-10T06:50:52.075Z,1007.1
2023-01-10T06:53:52.053Z,1007.2
2023-01-10T06:56:52.057Z,1007.2
2023-01-10T06:59:52.057Z,1007.2
2023-01-10T07:02:52.060Z,1007.3
2023-01-10T07:05:52.058Z,1007.2
2023-01-10T07:08:52.085Z,1007.3
2023-01-10T07:11:52.062Z,1007.4
2023-01-10T07:14:52.071Z,1007.5
2023-01-10T07:17:52.068Z,1007.6
2023-01-10T07:20:52.068Z,1007.6
2023-01-10T07:23:52.074Z,1007.5
2023-01-10T07:26:52.097Z,1007.6
2023-01-10T07:29:52.083Z,1007.6
2023-01-10T07:32:52.081Z,1007.7
2023-01-10T07:35:52.086Z,1007.7
2023-01-10T07:38:52.083Z,1007.9
2023-01-10T07:41:52.091Z,1007.9
2023-01-10T07:44:52.124Z,1008
2023-01-10T07:47:52.092Z,1008.1
2023-01-10T07:50:52.098Z,1008.1
2023-01-10T07:53:52.099Z,1008.1
2023-01-10T07:56:52.111Z,1008.2
2023-01-10T07:59:52.108Z,1008.1
2023-01-10T08:02:52.220Z,1008.2
2023-01-10T08:05:52.118Z,1008.2
2023-01-10T08:08:52.115Z,1008.3
2023-01-10T08:11:52.130Z,1008.2
2023-01-10T08:14:52.126Z,1008.4
2023-01-10T08:17:52.121Z,1008.4
2023-01-10T08:20:52.149Z,1008.5
2023-01-10T08:23:52.135Z,1008.5
2023-01-10T08:26:52.131Z,1008.6
2023-01-10T08:29:52.164Z,1008.5
2023-01-10T08:32:52.141Z,1008.5
2023-01-10T08:35:52.239Z,1008.6
2023-01-10T08:38:52.168Z,1008.6
2023-01-10T08:41:52.145Z,1008.6
2023-01-10T08:44:52.147Z,1008.7
2023-01-10T08:47:52.149Z,1008.7
2023-01-10T08:50:52.161Z,1008.6
2023-01-10T08:53:52.158Z,1008.7
2023-01-10T08:56:52.179Z,1008.7
2023-01-10T08:59:52.167Z,1008.8
2023-01-10T09:02:52.195Z,1008.8
2023-01-10T09:05:52.165Z,1008.8
2023-01-10T09:08:52.166Z,1008.8
2023-01-10T09:11:52.174Z,1009
2023-01-10T09:14:52.199Z,1009
2023-01-10T09:17:52.185Z,1009
2023-01-10T09:20:52.183Z,1009
2023-01-10T09:23:52.182Z,1009.2
2023-01-10T09:26:52.183Z,1009.2
2023-01-10T09:29:52.191Z,1009.2
2023-01-10T09:32:52.212Z,1009.1
2023-01-10T09:35:52.196Z,1009.1
2023-01-10T09:38:52.197Z,1008.8
2023-01-10T09:41:52.209Z,1008.9
2023-01-10T09:44:52.205Z,1008.9
2023-01-10T09:47:52.204Z,1009
2023-01-10T09:50:52.358Z,1008.9
2023-01-10T09:53:53.729Z,1008.9
2023-01-10T09:56:52.315Z,1009.1
2023-01-10T09:59:52.218Z,1009.1
2023-01-10T10:02:52.223Z,1009.1
2023-01-10T10:05:55.938Z,1009.2
2023-01-10T10:08:52.265Z,1009.1
2023-01-10T10:11:52.235Z,1009.2
2023-01-10T10:14:52.237Z,1009.3
2023-01-10T10:17:52.239Z,1009.3
2023-01-10T10:20:52.249Z,1009.4
2023-01-10T10:23:52.240Z,1009.4
2023-01-10T10:26:52.268Z,1009.3
2023-01-10T10:29:52.253Z,1009.3
2023-01-10T10:32:52.257Z,1009.4
2023-01-10T10:35:52.252Z,1009.3
2023-01-10T10:38:52.260Z,1009.3
2023-01-10T10:41:52.265Z,1009.3
2023-01-10T10:44:52.295Z,1009.4
2023-01-10T10:47:52.284Z,1009.4
2023-01-10T10:50:52.274Z,1009.5
2023-01-10T10:53:52.282Z,1009.5
2023-01-10T10:56:52.437Z,1009.5
2023-01-10T10:59:52.293Z,1009.5
2023-01-10T11:02:52.324Z,1009.4
2023-01-10T11:05:52.325Z,1009.4
2023-01-10T11:08:52.305Z,1009.4
2023-01-10T11:11:52.303Z,1009.4
2023-01-10T11:14:52.309Z,1009.5
2023-01-10T11:17:52.315Z,1009.5
2023-01-10T11:20:52.349Z,1009.5
2023-01-10T11:23:52.327Z,1009.5
2023-01-10T11:26:52.330Z,1009.5
2023-01-10T11:29:52.339Z,1009.5
2023-01-10T11:32:52.341Z,1009.6
2023-01-10T11:35:52.337Z,1009.7
2023-01-10T11:38:52.366Z,1009.6
2023-01-10T11:41:52.349Z,1009.6
2023-01-10T11:44:52.350Z,1009.6
2023-01-10T11:47:52.360Z,1009.7
2023-01-10T11:50:52.365Z,1009.7
2023-01-10T11:53:52.368Z,1009.7
2023-01-10T11:56:52.398Z,1009.6
2023-01-10T11:59:52.379Z,1009.6
2023-01-10T12:02:52.385Z,1009.6
2023-01-10T12:05:52.383Z,1009.6
2023-01-10T12:08:52.394Z,1009.6
2023-01-10T12:11:52.399Z,1009.6
2023-01-10T12:14:52.431Z,1009.5
2023-01-10T12:17:52.408Z,1009.5
2023-01-10T12:20:52.427Z,1009.5
2023-01-10T12:23:52.421Z,1009.6
2023-01-10T12:26:52.432Z,1009.6
2023-01-10T12:29:52.431Z,1009.5
2023-01-10T12:32:52.464Z,1009.5
2023-01-10T12:35:52.445Z,1009.5
2023-01-10T12:38:52.447Z,1009.5
2023-01-10T12:41:52.453Z,1009.6
2023-01-10T12:44:52.456Z,1009.6
2023-01-10T12:47:52.467Z,1009.5
2023-01-10T12:50:52.492Z,1009.6
2023-01-10T12:53:52.473Z,1009.5
2023-01-10T12:56:52.484Z,1009.6
2023-01-10T12:59:52.483Z,1009.7
2023-01-10T13:02:52.548Z,1009.7
2023-01-10T13:05:52.499Z,1009.6
2023-01-10T13:08:52.530Z,1009.6
2023-01-10T13:11:52.521Z,1009.5
2023-01-10T13:14:52.524Z,1009.5
2023-01-10T13:17:52.521Z,1009.5
2023-01-10T13:20:52.521Z,1009.5
2023-01-10T13:23:52.521Z,1009.6
2023-01-10T13:26:52.577Z,1009.5
2023-01-10T13:29:52.537Z,1009.4
2023-01-10T13:32:52.548Z,1009.4
2023-01-10T13:35:52.548Z,1009.5
2023-01-10T13:38:52.553Z,1009.5
2023-01-10T13:41:52.561Z,1009.5
2023-01-10T13:44:52.586Z,1009.5
2023-01-10T13:47:52.574Z,1009.6
2023-01-10T13:50:52.587Z,1009.6
2023-01-10T13:53:52.587Z,1009.7
2023-01-10T13:56:52.587Z,1009.5
2023-01-10T13:59:52.598Z,1009.6
2023-01-10T14:02:52.707Z,1009.7
2023-01-10T14:05:52.612Z,1009.7
2023-01-10T14:08:52.623Z,1009.7
2023-01-10T14:11:52.622Z,1009.6
2023-01-10T14:14:52.637Z,1009.6
2023-01-10T14:17:52.647Z,1009.7
2023-01-10T14:20:52.667Z,1009.8
2023-01-10T14:23:52.658Z,1009.8
2023-01-10T14:26:52.657Z,1009.7
2023-01-10T14:29:52.664Z,1009.7
2023-01-10T14:32:52.680Z,1009.7
2023-01-10T14:35:52.682Z,1009.6
2023-01-10T14:38:52.723Z,1009.6
2023-01-10T14:41:52.697Z,1009.7
2023-01-10T14:44:52.694Z,1009.7
2023-01-10T14:47:52.701Z,1009.6
2023-01-10T14:50:52.711Z,1009.6
2023-01-10T14:53:52.718Z,1009.5
2023-01-10T14:56:52.752Z,1009.7
2023-01-10T14:59:52.734Z,1009.7
2023-01-10T15:02:52.741Z,1009.7
2023-01-10T15:05:52.749Z,1009.6
2023-01-10T15:08:52.757Z,1009.7
2023-01-10T15:11:52.763Z,1009.6
2023-01-10T15:14:52.795Z,1009.6
2023-01-10T15:17:52.776Z,1009.6
2023-01-10T15:20:52.783Z,1009.5
2023-01-10T15:23:52.805Z,1009.5
2023-01-10T15:26:52.818Z,1009.5
2023-01-10T15:29:52.807Z,1009.5
2023-01-10T15:32:52.842Z,1009.3
2023-01-10T15:35:52.830Z,1009.2
2023-01-10T15:38:52.837Z,1009.4
2023-01-10T15:41:52.845Z,1009.4
2023-01-10T15:44:52.853Z,1009.4
2023-01-10T15:47:52.892Z,1009.3
2023-01-10T15:50:53.085Z,1009.3
2023-01-10T15:53:52.864Z,1009.3
2023-01-10T15:56:52.869Z,1009.4
2023-01-10T15:59:52.876Z,1009.3
2023-01-10T16:02:53.050Z,1009.3
2023-01-10T16:05:52.889Z,1009.3
2023-01-10T16:08:52.916Z,1009.3
2023-01-10T16:11:52.903Z,1009.3
2023-01-10T16:14:52.903Z,1009.2
2023-01-10T16:17:52.925Z,1009.2
2023-01-10T16:20:52.920Z,1009.2
2023-01-10T16:23:52.919Z,1009.2
2023-01-10T16:26:52.948Z,1009.3
2023-01-10T16:29:52.934Z,1009.2
2023-01-10T16:32:52.951Z,1009.2
2023-01-10T16:35:52.937Z,1009.1
2023-01-10T16:38:52.945Z,1009.1
2023-01-10T16:41:52.953Z,1009.1
2023-01-10T16:44:52.971Z,1009
2023-01-10T16:47:52.964Z,1008.9
2023-01-10T16:50:52.975Z,1009
2023-01-10T16:53:52.961Z,1009.1
2023-01-10T16:56:52.963Z,1009.1
2023-01-10T16:59:52.967Z,1009
2023-01-10T17:02:53.001Z,1008.9
2023-01-10T17:05:52.970Z,1008.8
2023-01-10T17:08:52.982Z,1008.7
2023-01-10T17:11:52.975Z,1008.8
2023-01-10T17:14:52.979Z,1008.8
2023-01-10T17:17:52.981Z,1008.7
2023-01-10T17:20:53.000Z,1008.7
2023-01-10T17:23:52.981Z,1008.7
2023-01-10T17:26:52.982Z,1008.7
2023-01-10T17:29:53.013Z,1008.6
2023-01-10T17:32:52.996Z,1008.5
2023-01-10T17:35:53.009Z,1008.4
2023-01-10T17:38:53.040Z,1008.4
2023-01-10T17:41:53.021Z,1008.4
2023-01-10T17:44:53.036Z,1008.4
2023-01-10T17:47:53.038Z,1008.4
2023-01-10T17:50:53.051Z,1008.4
2023-01-10T17:53:53.055Z,1008.4
2023-01-10T17:56:53.145Z,1008.4
2023-01-10T17:59:53.079Z,1008.4
2023-01-10T18:02:53.160Z,1008.4
2023-01-10T18:05:53.109Z,1008.3
2023-01-10T18:08:53.099Z,1008.3
2023-01-10T18:11:53.106Z,1008.3
2023-01-10T18:14:53.137Z,1008.2
2023-01-10T18:17:53.121Z,1008.1
2023-01-10T18:20:53.140Z,1008.1
2023-01-10T18:23:53.140Z,1008.1
2023-01-10T18:26:53.148Z,1008.1
2023-01-10T18:29:53.160Z,1008
2023-01-10T18:32:53.192Z,1008
2023-01-10T18:35:53.173Z,1007.9
2023-01-10T18:38:53.186Z,1007.8
2023-01-10T18:41:53.188Z,1007.8
2023-01-10T18:44:53.199Z,1007.7
2023-01-10T18:47:53.206Z,1007.8
2023-01-10T18:50:53.243Z,1007.7
2023-01-10T18:53:53.226Z,1007.7
2023-01-10T18:56:53.236Z,1007.7
2023-01-10T18:59:53.249Z,1007.6
2023-01-10T19:02:53.420Z,1007.6
2023-01-10T19:05:53.333Z,1007.6
2023-01-10T19:08:53.307Z,1007.5
2023-01-10T19:11:53.279Z,1007.4
2023-01-10T19:14:53.292Z,1007.3
2023-01-10T19:17:53.293Z,1007.3
2023-01-10T19:20:53.308Z,1007.2
2023-01-10T19:23:53.316Z,1007.3
2023-01-10T19:26:53.345Z,1007.3
2023-01-10T19:29:53.324Z,1007.3
2023-01-10T19:32:53.338Z,1007.2
2023-01-10T19:35:53.344Z,1007.2
2023-01-10T19:38:53.356Z,1007.2
2023-01-10T19:41:53.356Z,1007.2
2023-01-10T19:44:53.386Z,1007.2
2023-01-10T19:47:53.373Z,1007.2
2023-01-10T19:50:53.381Z,1007.1
2023-01-10T19:53:53.388Z,1007.1
2023-01-10T19:56:53.392Z,1007
2023-01-10T19:59:53.405Z,1006.9
2023-01-10T20:02:53.512Z,1006.8
2023-01-10T20:05:53.417Z,1006.9
2023-01-10T20:08:53.427Z,1006.8
2023-01-10T20:11:53.432Z,1006.8
2023-01-10T20:14:53.448Z,1006.9
2023-01-10T20:17:53.451Z,1006.8
2023-01-10T20:20:53.485Z,1006.9
2023-01-10T20:23:53.463Z,1006.8
2023-01-10T20:26:53.477Z,1006.9
2023-01-10T20:29:53.495Z,1006.8
2023-01-10T20:32:53.499Z,1006.7
2023-01-10T20:35:53.509Z,1006.7
2023-01-10T20:38:53.550Z,1006.7
2023-01-10T20:41:53.532Z,1006.6
2023-01-10T20:44:53.554Z,1006.6
2023-01-10T20:47:53.561Z,1006.5
2023-01-10T20:50:53.573Z,1006.5
2023-01-10T20:53:53.585Z,1006.4
2023-01-10T20:56:53.626Z,1006.5
2023-01-10T20:59:53.607Z,1006.3
2023-01-10T21:02:53.647Z,1006.3
2023-01-10T21:05:53.630Z,1006.2
2023-01-10T21:08:53.663Z,1006.3
2023-01-10T21:12:04.300Z,1006.2
2023-01-10T21:14:53.712Z,1006.2
2023-01-10T21:17:53.687Z,1006.2
2023-01-10T21:20:53.692Z,1006.1
2023-01-10T21:23:53.722Z,1006.1
2023-01-10T21:26:53.716Z,1005.9
2023-01-10T21:29:53.728Z,1005.8
2023-01-10T21:32:53.763Z,1005.9
2023-01-10T21:35:53.748Z,1005.9
2023-01-10T21:38:53.764Z,1005.9
2023-01-10T21:41:53.779Z,1005.7
2023-01-10T21:44:53.839Z,1005.6
2023-01-10T21:47:53.794Z,1005.6
2023-01-10T21:50:53.832Z,1005.5
2023-01-10T21:53:53.821Z,1005.5
2023-01-10T21:56:53.833Z,1005.4
2023-01-10T21:59:53.840Z,1005.3
2023-01-10T22:02:53.852Z,1005.2
2023-01-10T22:05:53.863Z,1005.1
2023-01-10T22:08:53.881Z,1005.1
2023-01-10T22:11:53.866Z,1005.1
2023-01-10T22:14:53.908Z,1005.1
2023-01-10T22:17:53.896Z,1005
2023-01-10T22:20:53.882Z,1004.9
2023-01-10T22:23:53.891Z,1004.8
2023-01-10T22:26:53.929Z,1004.8
2023-01-10T22:29:53.907Z,1004.8
2023-01-10T22:32:53.902Z,1004.7
2023-01-10T22:35:53.909Z,1004.8
2023-01-10T22:38:53.918Z,1004.7
2023-01-10T22:41:53.934Z,1004.7
2023-01-10T22:44:53.951Z,1004.6
2023-01-10T22:47:53.935Z,1004.6
2023-01-10T22:50:53.940Z,1004.6
2023-01-10T22:53:53.949Z,1004.5
2023-01-10T22:56:53.943Z,1004.5
2023-01-10T22:59:53.948Z,1004.5
2023-01-10T23:02:53.976Z,1004.4
2023-01-10T23:05:53.955Z,1004.4
2023-01-10T23:08:53.964Z,1004.3
2023-01-10T23:11:53.976Z,1004.2
2023-01-10T23:14:53.982Z,1004.2
2023-01-10T23:17:53.985Z,1004.2
2023-01-10T23:20:54.011Z,1004.1
2023-01-10T23:23:53.998Z,1004.1
2023-01-10T23:26:54.000Z,1004
2023-01-10T23:29:54.015Z,1004
2023-01-10T23:32:54.037Z,1004
2023-01-10T23:35:54.040Z,1003.9
2023-01-10T23:38:54.089Z,1003.9
2023-01-10T23:41:54.042Z,1003.8
2023-01-10T23:44:54.050Z,1003.7
2023-01-10T23:47:54.041Z,1003.6
2023-01-10T23:50:54.060Z,1003.6
2023-01-10T23:53:54.044Z,1003.5
2023-01-10T23:56:54.066Z,1003.4
2023-01-10T23:59:54.044Z,1003.4
